In Rescue
 
Open Full Screen Window  High Contrast Mode
Wind Gusting 00 knots
12
January 20, 2021 4:38 PM EST
Weather Information
Wind Direction
  190 °
Wind Speed
  12 kt (14 mph)
Wind Gust
  00 kt (0 mph)
Altimeter
29.93 in
Visibility
10 SM
Temperature
-04° C
25° F
Dewpoint
-08° C
18° F
Humidity
74%
Sky Condition
Scattered @ 2,600 ft
VFR

METAR KHYX 202138Z AUTO 19012KT 10SM SCT026 M04/M08 A2993 RMK AO2

FAA Disclaimer: The data displayed is for advisory purposes only and is not to be used for flight planning or operations.